sensor_id;sensor_type;location;lat;lon;timestamp;P1;durP1;ratioP1;P2;durP2;ratioP2
8572;SDS011;4324;42.012;24.872;2022-08-21T00:02:25;10.57;;;9.03;;
8572;SDS011;4324;42.012;24.872;2022-08-21T00:04:53;11.13;;;7.93;;
8572;SDS011;4324;42.012;24.872;2022-08-21T00:07:20;12.27;;;9.07;;
8572;SDS011;4324;42.012;24.872;2022-08-21T00:09:47;12.13;;;9.17;;
8572;SDS011;4324;42.012;24.872;2022-08-21T00:12:14;11.47;;;9.17;;
8572;SDS011;4324;42.012;24.872;2022-08-21T00:14:41;10.07;;;8.00;;
8572;SDS011;4324;42.012;24.872;2022-08-21T00:17:08;10.27;;;7.90;;
8572;SDS011;4324;42.012;24.872;2022-08-21T00:19:37;8.93;;;7.77;;
8572;SDS011;4324;42.012;24.872;2022-08-21T00:22:03;9.63;;;8.17;;
8572;SDS011;4324;42.012;24.872;2022-08-21T00:24:30;10.73;;;8.40;;
8572;SDS011;4324;42.012;24.872;2022-08-21T00:27:00;10.90;;;8.37;;
8572;SDS011;4324;42.012;24.872;2022-08-21T00:29:27;11.07;;;8.23;;
8572;SDS011;4324;42.012;24.872;2022-08-21T00:31:54;8.80;;;7.70;;
8572;SDS011;4324;42.012;24.872;2022-08-21T00:34:21;9.00;;;8.07;;
8572;SDS011;4324;42.012;24.872;2022-08-21T00:36:49;12.07;;;7.83;;
8572;SDS011;4324;42.012;24.872;2022-08-21T00:39:16;12.33;;;8.33;;
8572;SDS011;4324;42.012;24.872;2022-08-21T00:41:43;9.43;;;8.53;;
8572;SDS011;4324;42.012;24.872;2022-08-21T00:44:12;9.47;;;7.90;;
8572;SDS011;4324;42.012;24.872;2022-08-21T00:46:40;10.30;;;7.97;;
8572;SDS011;4324;42.012;24.872;2022-08-21T00:49:09;10.83;;;8.90;;
8572;SDS011;4324;42.012;24.872;2022-08-21T00:51:38;11.80;;;8.90;;
8572;SDS011;4324;42.012;24.872;2022-08-21T00:54:09;10.67;;;9.57;;
8572;SDS011;4324;42.012;24.872;2022-08-21T00:56:38;9.93;;;8.30;;
8572;SDS011;4324;42.012;24.872;2022-08-21T00:59:05;10.27;;;9.27;;
8572;SDS011;4324;42.012;24.872;2022-08-21T01:01:32;10.93;;;7.60;;
8572;SDS011;4324;42.012;24.872;2022-08-21T01:03:59;8.93;;;8.13;;
8572;SDS011;4324;42.012;24.872;2022-08-21T01:06:26;12.27;;;8.37;;
8572;SDS011;4324;42.012;24.872;2022-08-21T01:08:53;9.57;;;8.47;;
8572;SDS011;4324;42.012;24.872;2022-08-21T01:11:22;11.40;;;9.07;;
8572;SDS011;4324;42.012;24.872;2022-08-21T01:13:49;9.83;;;8.83;;
8572;SDS011;4324;42.012;24.872;2022-08-21T01:16:17;9.93;;;8.27;;
8572;SDS011;4324;42.012;24.872;2022-08-21T01:18:46;13.60;;;8.97;;
8572;SDS011;4324;42.012;24.872;2022-08-21T01:21:17;11.60;;;7.97;;
8572;SDS011;4324;42.012;24.872;2022-08-21T01:23:46;9.73;;;8.27;;
8572;SDS011;4324;42.012;24.872;2022-08-21T01:26:17;10.10;;;8.43;;
8572;SDS011;4324;42.012;24.872;2022-08-21T01:28:47;10.00;;;8.47;;
8572;SDS011;4324;42.012;24.872;2022-08-21T01:31:18;9.57;;;8.57;;
8572;SDS011;4324;42.012;24.872;2022-08-21T01:33:48;13.60;;;9.70;;
8572;SDS011;4324;42.012;24.872;2022-08-21T01:36:17;10.40;;;9.13;;
8572;SDS011;4324;42.012;24.872;2022-08-21T01:38:44;9.50;;;8.60;;
8572;SDS011;4324;42.012;24.872;2022-08-21T01:41:12;10.50;;;9.07;;
8572;SDS011;4324;42.012;24.872;2022-08-21T01:43:39;12.63;;;8.67;;
8572;SDS011;4324;42.012;24.872;2022-08-21T01:46:07;10.17;;;8.63;;
8572;SDS011;4324;42.012;24.872;2022-08-21T01:48:33;9.83;;;8.90;;
8572;SDS011;4324;42.012;24.872;2022-08-21T01:51:01;9.83;;;8.87;;
8572;SDS011;4324;42.012;24.872;2022-08-21T01:53:29;10.53;;;8.83;;
8572;SDS011;4324;42.012;24.872;2022-08-21T01:55:56;10.67;;;9.27;;
8572;SDS011;4324;42.012;24.872;2022-08-21T01:58:23;10.77;;;9.50;;
8572;SDS011;4324;42.012;24.872;2022-08-21T02:00:50;9.80;;;8.20;;
8572;SDS011;4324;42.012;24.872;2022-08-21T02:03:17;11.20;;;9.87;;
8572;SDS011;4324;42.012;24.872;2022-08-21T02:05:44;10.47;;;8.70;;
8572;SDS011;4324;42.012;24.872;2022-08-21T02:08:11;17.73;;;10.37;;
8572;SDS011;4324;42.012;24.872;2022-08-21T02:10:39;11.50;;;10.17;;
8572;SDS011;4324;42.012;24.872;2022-08-21T02:13:07;10.43;;;9.23;;
8572;SDS011;4324;42.012;24.872;2022-08-21T02:15:34;10.20;;;9.10;;
8572;SDS011;4324;42.012;24.872;2022-08-21T02:18:02;10.77;;;9.67;;
8572;SDS011;4324;42.012;24.872;2022-08-21T02:20:33;12.00;;;9.97;;
8572;SDS011;4324;42.012;24.872;2022-08-21T02:23:03;10.83;;;9.80;;
8572;SDS011;4324;42.012;24.872;2022-08-21T02:25:32;11.10;;;10.00;;
8572;SDS011;4324;42.012;24.872;2022-08-21T02:28:02;11.60;;;10.50;;
8572;SDS011;4324;42.012;24.872;2022-08-21T02:30:32;11.47;;;9.60;;
8572;SDS011;4324;42.012;24.872;2022-08-21T02:33:00;11.70;;;10.13;;
8572;SDS011;4324;42.012;24.872;2022-08-21T02:35:27;11.20;;;10.00;;
8572;SDS011;4324;42.012;24.872;2022-08-21T02:37:55;10.63;;;9.67;;
8572;SDS011;4324;42.012;24.872;2022-08-21T02:40:25;10.03;;;9.03;;
8572;SDS011;4324;42.012;24.872;2022-08-21T02:42:54;10.97;;;9.87;;
8572;SDS011;4324;42.012;24.872;2022-08-21T02:45:22;10.47;;;9.47;;
8572;SDS011;4324;42.012;24.872;2022-08-21T02:47:50;10.60;;;9.50;;
8572;SDS011;4324;42.012;24.872;2022-08-21T02:50:19;11.90;;;10.63;;
8572;SDS011;4324;42.012;24.872;2022-08-21T02:52:49;12.23;;;10.63;;
8572;SDS011;4324;42.012;24.872;2022-08-21T02:55:17;14.70;;;10.83;;
8572;SDS011;4324;42.012;24.872;2022-08-21T02:57:45;13.07;;;10.17;;
8572;SDS011;4324;42.012;24.872;2022-08-21T03:00:13;10.97;;;9.83;;
8572;SDS011;4324;42.012;24.872;2022-08-21T03:02:42;12.03;;;10.87;;
8572;SDS011;4324;42.012;24.872;2022-08-21T03:05:11;11.23;;;10.10;;
8572;SDS011;4324;42.012;24.872;2022-08-21T03:07:40;12.97;;;10.10;;
8572;SDS011;4324;42.012;24.872;2022-08-21T03:10:07;13.10;;;11.13;;
8572;SDS011;4324;42.012;24.872;2022-08-21T03:12:35;12.13;;;10.70;;
8572;SDS011;4324;42.012;24.872;2022-08-21T03:15:03;13.43;;;10.87;;
8572;SDS011;4324;42.012;24.872;2022-08-21T03:17:32;12.83;;;11.50;;
8572;SDS011;4324;42.012;24.872;2022-08-21T03:20:00;12.83;;;11.03;;
8572;SDS011;4324;42.012;24.872;2022-08-21T03:22:28;14.47;;;10.90;;
8572;SDS011;4324;42.012;24.872;2022-08-21T03:24:55;15.03;;;11.17;;
8572;SDS011;4324;42.012;24.872;2022-08-21T03:27:23;15.53;;;11.57;;
8572;SDS011;4324;42.012;24.872;2022-08-21T03:29:51;11.03;;;9.90;;
8572;SDS011;4324;42.012;24.872;2022-08-21T03:32:18;10.93;;;9.93;;
8572;SDS011;4324;42.012;24.872;2022-08-21T03:34:45;11.23;;;10.10;;
8572;SDS011;4324;42.012;24.872;2022-08-21T03:37:14;11.00;;;9.90;;
8572;SDS011;4324;42.012;24.872;2022-08-21T03:39:42;10.90;;;9.77;;
8572;SDS011;4324;42.012;24.872;2022-08-21T03:42:10;10.47;;;9.43;;
8572;SDS011;4324;42.012;24.872;2022-08-21T03:44:38;10.67;;;9.60;;
8572;SDS011;4324;42.012;24.872;2022-08-21T03:47:05;13.03;;;10.00;;
8572;SDS011;4324;42.012;24.872;2022-08-21T03:49:32;11.37;;;10.17;;
8572;SDS011;4324;42.012;24.872;2022-08-21T03:51:59;12.17;;;10.80;;
8572;SDS011;4324;42.012;24.872;2022-08-21T03:54:28;12.20;;;10.77;;
8572;SDS011;4324;42.012;24.872;2022-08-21T03:56:54;14.37;;;11.00;;
8572;SDS011;4324;42.012;24.872;2022-08-21T03:59:22;11.47;;;9.30;;
8572;SDS011;4324;42.012;24.872;2022-08-21T04:01:52;15.33;;;9.47;;
8572;SDS011;4324;42.012;24.872;2022-08-21T04:04:20;16.43;;;11.73;;
8572;SDS011;4324;42.012;24.872;2022-08-21T04:06:47;12.47;;;10.97;;
8572;SDS011;4324;42.012;24.872;2022-08-21T04:09:14;19.97;;;13.80;;
8572;SDS011;4324;42.012;24.872;2022-08-21T04:11:43;22.90;;;13.60;;
8572;SDS011;4324;42.012;24.872;2022-08-21T04:14:10;18.10;;;10.67;;
8572;SDS011;4324;42.012;24.872;2022-08-21T04:16:37;20.33;;;14.07;;
8572;SDS011;4324;42.012;24.872;2022-08-21T04:19:04;17.17;;;13.33;;
8572;SDS011;4324;42.012;24.872;2022-08-21T04:21:31;12.03;;;10.43;;
8572;SDS011;4324;42.012;24.872;2022-08-21T04:23:58;13.10;;;9.77;;
8572;SDS011;4324;42.012;24.872;2022-08-21T04:26:25;12.30;;;10.07;;
8572;SDS011;4324;42.012;24.872;2022-08-21T04:28:53;11.77;;;9.30;;
8572;SDS011;4324;42.012;24.872;2022-08-21T04:31:22;11.30;;;9.97;;
8572;SDS011;4324;42.012;24.872;2022-08-21T04:33:49;12.30;;;10.73;;
8572;SDS011;4324;42.012;24.872;2022-08-21T04:36:16;14.53;;;11.37;;
8572;SDS011;4324;42.012;24.872;2022-08-21T04:38:43;12.00;;;10.30;;
8572;SDS011;4324;42.012;24.872;2022-08-21T04:41:10;12.80;;;10.77;;
8572;SDS011;4324;42.012;24.872;2022-08-21T04:43:37;11.87;;;10.10;;
8572;SDS011;4324;42.012;24.872;2022-08-21T04:46:06;12.33;;;10.57;;
8572;SDS011;4324;42.012;24.872;2022-08-21T04:48:33;13.07;;;11.73;;
8572;SDS011;4324;42.012;24.872;2022-08-21T04:51:01;16.93;;;15.23;;
8572;SDS011;4324;42.012;24.872;2022-08-21T04:53:33;12.67;;;10.50;;
8572;SDS011;4324;42.012;24.872;2022-08-21T04:56:04;11.33;;;10.20;;
8572;SDS011;4324;42.012;24.872;2022-08-21T04:58:36;11.33;;;10.23;;
8572;SDS011;4324;42.012;24.872;2022-08-21T05:01:06;13.63;;;10.73;;
8572;SDS011;4324;42.012;24.872;2022-08-21T05:03:36;13.80;;;11.53;;
8572;SDS011;4324;42.012;24.872;2022-08-21T05:06:04;11.57;;;10.37;;
8572;SDS011;4324;42.012;24.872;2022-08-21T05:08:35;11.73;;;9.17;;
8572;SDS011;4324;42.012;24.872;2022-08-21T05:11:04;12.73;;;11.17;;
8572;SDS011;4324;42.012;24.872;2022-08-21T05:13:32;13.47;;;10.70;;
8572;SDS011;4324;42.012;24.872;2022-08-21T05:15:59;10.67;;;9.57;;
8572;SDS011;4324;42.012;24.872;2022-08-21T05:18:28;15.20;;;11.63;;
8572;SDS011;4324;42.012;24.872;2022-08-21T05:20:55;17.27;;;12.50;;
8572;SDS011;4324;42.012;24.872;2022-08-21T05:23:22;9.40;;;8.43;;
8572;SDS011;4324;42.012;24.872;2022-08-21T05:25:50;12.37;;;9.97;;
8572;SDS011;4324;42.012;24.872;2022-08-21T05:28:17;12.00;;;9.90;;
8572;SDS011;4324;42.012;24.872;2022-08-21T05:30:44;14.43;;;10.27;;
8572;SDS011;4324;42.012;24.872;2022-08-21T05:33:11;12.20;;;9.60;;
8572;SDS011;4324;42.012;24.872;2022-08-21T05:35:40;10.33;;;9.30;;
8572;SDS011;4324;42.012;24.872;2022-08-21T05:38:07;11.73;;;10.50;;
8572;SDS011;4324;42.012;24.872;2022-08-21T05:40:34;13.53;;;12.13;;
8572;SDS011;4324;42.012;24.872;2022-08-21T05:43:01;12.40;;;11.20;;
8572;SDS011;4324;42.012;24.872;2022-08-21T05:45:29;13.30;;;11.93;;
8572;SDS011;4324;42.012;24.872;2022-08-21T05:47:57;13.27;;;11.00;;
8572;SDS011;4324;42.012;24.872;2022-08-21T05:50:31;12.67;;;11.37;;
8572;SDS011;4324;42.012;24.872;2022-08-21T05:52:59;13.20;;;11.73;;
8572;SDS011;4324;42.012;24.872;2022-08-21T05:55:26;13.27;;;11.83;;
8572;SDS011;4324;42.012;24.872;2022-08-21T05:57:53;15.57;;;11.50;;
8572;SDS011;4324;42.012;24.872;2022-08-21T06:00:20;13.73;;;12.23;;
8572;SDS011;4324;42.012;24.872;2022-08-21T06:02:48;13.17;;;11.77;;
8572;SDS011;4324;42.012;24.872;2022-08-21T06:05:16;14.10;;;11.20;;
8572;SDS011;4324;42.012;24.872;2022-08-21T06:07:43;12.53;;;11.23;;
8572;SDS011;4324;42.012;24.872;2022-08-21T06:10:11;11.43;;;9.40;;
8572;SDS011;4324;42.012;24.872;2022-08-21T06:12:39;12.33;;;10.17;;
8572;SDS011;4324;42.012;24.872;2022-08-21T06:15:06;8.63;;;7.40;;
8572;SDS011;4324;42.012;24.872;2022-08-21T06:17:34;13.93;;;7.77;;
8572;SDS011;4324;42.012;24.872;2022-08-21T06:20:01;10.50;;;8.23;;
8572;SDS011;4324;42.012;24.872;2022-08-21T06:22:31;11.73;;;9.80;;
8572;SDS011;4324;42.012;24.872;2022-08-21T06:24:59;13.07;;;10.53;;
8572;SDS011;4324;42.012;24.872;2022-08-21T06:27:27;14.93;;;11.07;;
8572;SDS011;4324;42.012;24.872;2022-08-21T06:29:56;10.30;;;9.07;;
8572;SDS011;4324;42.012;24.872;2022-08-21T06:32:25;13.00;;;9.50;;
8572;SDS011;4324;42.012;24.872;2022-08-21T06:34:52;12.07;;;8.40;;
8572;SDS011;4324;42.012;24.872;2022-08-21T06:37:20;12.07;;;8.63;;
8572;SDS011;4324;42.012;24.872;2022-08-21T06:39:47;11.63;;;8.60;;
8572;SDS011;4324;42.012;24.872;2022-08-21T06:42:15;12.57;;;8.90;;
8572;SDS011;4324;42.012;24.872;2022-08-21T06:44:44;11.63;;;7.50;;
8572;SDS011;4324;42.012;24.872;2022-08-21T06:47:13;9.63;;;7.70;;
8572;SDS011;4324;42.012;24.872;2022-08-21T06:49:40;11.97;;;8.57;;
8572;SDS011;4324;42.012;24.872;2022-08-21T06:52:11;9.83;;;8.07;;
8572;SDS011;4324;42.012;24.872;2022-08-21T06:54:42;7.77;;;7.03;;
8572;SDS011;4324;42.012;24.872;2022-08-21T06:57:09;13.23;;;8.37;;
8572;SDS011;4324;42.012;24.872;2022-08-21T06:59:36;9.03;;;7.57;;
8572;SDS011;4324;42.012;24.872;2022-08-21T07:02:04;7.90;;;6.63;;
8572;SDS011;4324;42.012;24.872;2022-08-21T07:04:31;10.73;;;7.37;;
8572;SDS011;4324;42.012;24.872;2022-08-21T07:06:58;10.50;;;7.43;;
8572;SDS011;4324;42.012;24.872;2022-08-21T07:09:25;9.27;;;8.10;;
8572;SDS011;4324;42.012;24.872;2022-08-21T07:11:53;10.93;;;9.33;;
8572;SDS011;4324;42.012;24.872;2022-08-21T07:14:22;13.70;;;10.23;;
8572;SDS011;4324;42.012;24.872;2022-08-21T07:16:49;11.73;;;9.97;;
8572;SDS011;4324;42.012;24.872;2022-08-21T07:19:18;11.03;;;9.40;;
8572;SDS011;4324;42.012;24.872;2022-08-21T07:21:46;12.23;;;9.27;;
8572;SDS011;4324;42.012;24.872;2022-08-21T07:24:13;9.83;;;8.63;;
8572;SDS011;4324;42.012;24.872;2022-08-21T07:26:40;10.87;;;9.50;;
8572;SDS011;4324;42.012;24.872;2022-08-21T07:29:07;16.30;;;11.23;;
8572;SDS011;4324;42.012;24.872;2022-08-21T07:31:35;11.67;;;9.50;;
8572;SDS011;4324;42.012;24.872;2022-08-21T07:34:02;13.43;;;9.67;;
8572;SDS011;4324;42.012;24.872;2022-08-21T07:36:30;13.17;;;10.33;;
8572;SDS011;4324;42.012;24.872;2022-08-21T07:38:57;14.10;;;10.13;;
8572;SDS011;4324;42.012;24.872;2022-08-21T07:41:24;12.83;;;10.03;;
8572;SDS011;4324;42.012;24.872;2022-08-21T07:43:54;12.97;;;10.43;;
8572;SDS011;4324;42.012;24.872;2022-08-21T07:46:22;12.37;;;9.00;;
8572;SDS011;4324;42.012;24.872;2022-08-21T07:48:50;12.50;;;9.73;;
8572;SDS011;4324;42.012;24.872;2022-08-21T07:51:17;13.53;;;9.27;;
8572;SDS011;4324;42.012;24.872;2022-08-21T07:53:49;11.37;;;8.50;;
8572;SDS011;4324;42.012;24.872;2022-08-21T07:56:17;9.03;;;8.13;;
8572;SDS011;4324;42.012;24.872;2022-08-21T07:58:46;12.00;;;8.33;;
8572;SDS011;4324;42.012;24.872;2022-08-21T08:01:13;10.10;;;7.50;;
8572;SDS011;4324;42.012;24.872;2022-08-21T08:03:40;11.03;;;8.40;;
8572;SDS011;4324;42.012;24.872;2022-08-21T08:06:08;8.83;;;7.97;;
8572;SDS011;4324;42.012;24.872;2022-08-21T08:08:37;9.73;;;8.03;;
8572;SDS011;4324;42.012;24.872;2022-08-21T08:11:06;9.70;;;7.80;;
8572;SDS011;4324;42.012;24.872;2022-08-21T08:13:38;11.47;;;8.10;;
8572;SDS011;4324;42.012;24.872;2022-08-21T08:16:06;9.93;;;8.17;;
8572;SDS011;4324;42.012;24.872;2022-08-21T08:18:33;9.33;;;8.33;;
8572;SDS011;4324;42.012;24.872;2022-08-21T08:21:00;8.23;;;7.43;;
8572;SDS011;4324;42.012;24.872;2022-08-21T08:23:27;12.73;;;8.60;;
8572;SDS011;4324;42.012;24.872;2022-08-21T08:25:55;11.47;;;8.03;;
8572;SDS011;4324;42.012;24.872;2022-08-21T08:28:24;12.17;;;8.93;;
8572;SDS011;4324;42.012;24.872;2022-08-21T08:30:52;10.93;;;8.80;;
8572;SDS011;4324;42.012;24.872;2022-08-21T08:33:19;10.83;;;9.63;;
8572;SDS011;4324;42.012;24.872;2022-08-21T08:35:47;12.40;;;9.67;;
8572;SDS011;4324;42.012;24.872;2022-08-21T08:38:16;11.27;;;10.03;;
8572;SDS011;4324;42.012;24.872;2022-08-21T08:40:47;13.20;;;10.87;;
8572;SDS011;4324;42.012;24.872;2022-08-21T08:43:21;11.50;;;10.30;;
8572;SDS011;4324;42.012;24.872;2022-08-21T08:45:50;12.47;;;10.57;;
8572;SDS011;4324;42.012;24.872;2022-08-21T08:48:26;14.50;;;10.50;;
8572;SDS011;4324;42.012;24.872;2022-08-21T08:51:02;13.87;;;11.30;;
8572;SDS011;4324;42.012;24.872;2022-08-21T08:53:38;15.50;;;11.80;;
8572;SDS011;4324;42.012;24.872;2022-08-21T08:56:13;15.23;;;12.50;;
8572;SDS011;4324;42.012;24.872;2022-08-21T08:58:41;13.13;;;10.23;;
8572;SDS011;4324;42.012;24.872;2022-08-21T09:01:13;11.73;;;9.43;;
8572;SDS011;4324;42.012;24.872;2022-08-21T09:03:43;10.90;;;9.50;;
8572;SDS011;4324;42.012;24.872;2022-08-21T09:06:18;11.40;;;9.53;;
8572;SDS011;4324;42.012;24.872;2022-08-21T09:08:59;11.17;;;10.03;;
8572;SDS011;4324;42.012;24.872;2022-08-21T09:11:44;11.40;;;10.17;;
8572;SDS011;4324;42.012;24.872;2022-08-21T09:14:21;10.13;;;9.13;;
8572;SDS011;4324;42.012;24.872;2022-08-21T09:16:55;10.93;;;9.83;;
8572;SDS011;4324;42.012;24.872;2022-08-21T09:19:34;10.60;;;9.47;;
8572;SDS011;4324;42.012;24.872;2022-08-21T09:22:15;11.63;;;9.10;;
8572;SDS011;4324;42.012;24.872;2022-08-21T09:24:58;10.33;;;9.33;;
8572;SDS011;4324;42.012;24.872;2022-08-21T09:27:33;11.57;;;9.00;;
8572;SDS011;4324;42.012;24.872;2022-08-21T09:30:00;10.33;;;9.23;;
8572;SDS011;4324;42.012;24.872;2022-08-21T09:32:30;11.13;;;9.53;;
8572;SDS011;4324;42.012;24.872;2022-08-21T09:34:59;11.83;;;9.70;;
8572;SDS011;4324;42.012;24.872;2022-08-21T09:37:27;11.40;;;10.00;;
8572;SDS011;4324;42.012;24.872;2022-08-21T09:39:56;12.53;;;9.70;;
8572;SDS011;4324;42.012;24.872;2022-08-21T09:42:25;11.43;;;9.47;;
8572;SDS011;4324;42.012;24.872;2022-08-21T09:45:05;14.83;;;9.43;;
8572;SDS011;4324;42.012;24.872;2022-08-21T09:47:38;11.33;;;9.27;;
8572;SDS011;4324;42.012;24.872;2022-08-21T09:50:09;15.27;;;10.40;;
8572;SDS011;4324;42.012;24.872;2022-08-21T09:52:42;14.33;;;10.10;;
8572;SDS011;4324;42.012;24.872;2022-08-21T09:55:15;13.17;;;10.70;;
8572;SDS011;4324;42.012;24.872;2022-08-21T09:57:59;14.17;;;10.77;;
8572;SDS011;4324;42.012;24.872;2022-08-21T10:00:29;12.73;;;11.43;;
8572;SDS011;4324;42.012;24.872;2022-08-21T10:03:12;13.93;;;12.30;;
8572;SDS011;4324;42.012;24.872;2022-08-21T10:05:50;13.27;;;11.97;;
8572;SDS011;4324;42.012;24.872;2022-08-21T10:08:19;18.23;;;16.33;;
8572;SDS011;4324;42.012;24.872;2022-08-21T10:10:51;14.77;;;13.37;;
8572;SDS011;4324;42.012;24.872;2022-08-21T10:13:21;13.30;;;12.00;;
8572;SDS011;4324;42.012;24.872;2022-08-21T10:15:56;13.67;;;12.10;;
8572;SDS011;4324;42.012;24.872;2022-08-21T10:18:37;13.70;;;12.03;;
8572;SDS011;4324;42.012;24.872;2022-08-21T10:21:10;12.83;;;11.63;;
8572;SDS011;4324;42.012;24.872;2022-08-21T10:23:48;15.23;;;13.37;;
8572;SDS011;4324;42.012;24.872;2022-08-21T10:26:29;20.00;;;15.93;;
8572;SDS011;4324;42.012;24.872;2022-08-21T10:29:05;15.17;;;12.80;;
8572;SDS011;4324;42.012;24.872;2022-08-21T10:31:44;16.13;;;13.17;;
8572;SDS011;4324;42.012;24.872;2022-08-21T10:34:24;15.23;;;13.33;;
8572;SDS011;4324;42.012;24.872;2022-08-21T10:37:07;12.63;;;11.47;;
8572;SDS011;4324;42.012;24.872;2022-08-21T10:39:45;12.93;;;11.57;;
8572;SDS011;4324;42.012;24.872;2022-08-21T10:42:23;15.77;;;11.67;;
8572;SDS011;4324;42.012;24.872;2022-08-21T10:44:59;11.83;;;10.73;;
8572;SDS011;4324;42.012;24.872;2022-08-21T10:47:37;14.93;;;11.27;;
8572;SDS011;4324;42.012;24.872;2022-08-21T10:50:16;12.47;;;11.13;;
8572;SDS011;4324;42.012;24.872;2022-08-21T10:52:57;12.53;;;11.37;;
8572;SDS011;4324;42.012;24.872;2022-08-21T10:55:36;12.47;;;11.27;;
8572;SDS011;4324;42.012;24.872;2022-08-21T10:58:09;12.80;;;11.70;;
8572;SDS011;4324;42.012;24.872;2022-08-21T11:00:39;13.27;;;12.03;;
8572;SDS011;4324;42.012;24.872;2022-08-21T11:03:12;13.50;;;12.40;;
8572;SDS011;4324;42.012;24.872;2022-08-21T11:05:45;13.07;;;11.77;;
8572;SDS011;4324;42.012;24.872;2022-08-21T11:08:17;13.53;;;12.17;;
8572;SDS011;4324;42.012;24.872;2022-08-21T11:10:50;13.30;;;12.10;;
8572;SDS011;4324;42.012;24.872;2022-08-21T11:13:21;13.40;;;12.10;;
8572;SDS011;4324;42.012;24.872;2022-08-21T11:15:56;13.90;;;12.60;;
8572;SDS011;4324;42.012;24.872;2022-08-21T11:18:29;13.00;;;11.93;;
8572;SDS011;4324;42.012;24.872;2022-08-21T11:21:06;14.43;;;13.03;;
8572;SDS011;4324;42.012;24.872;2022-08-21T11:23:47;14.87;;;13.00;;
8572;SDS011;4324;42.012;24.872;2022-08-21T11:26:23;14.00;;;12.63;;
8572;SDS011;4324;42.012;24.872;2022-08-21T11:28:58;13.13;;;12.10;;
8572;SDS011;4324;42.012;24.872;2022-08-21T11:31:34;14.93;;;13.43;;
8572;SDS011;4324;42.012;24.872;2022-08-21T11:34:14;15.50;;;13.83;;
8572;SDS011;4324;42.012;24.872;2022-08-21T11:36:54;15.07;;;13.60;;
8572;SDS011;4324;42.012;24.872;2022-08-21T11:39:30;14.30;;;12.97;;
8572;SDS011;4324;42.012;24.872;2022-08-21T11:42:06;12.40;;;11.30;;
8572;SDS011;4324;42.012;24.872;2022-08-21T11:44:48;12.93;;;11.70;;
8572;SDS011;4324;42.012;24.872;2022-08-21T11:47:24;14.10;;;11.07;;
8572;SDS011;4324;42.012;24.872;2022-08-21T11:50:06;13.53;;;12.07;;
8572;SDS011;4324;42.012;24.872;2022-08-21T11:52:42;14.83;;;13.33;;
8572;SDS011;4324;42.012;24.872;2022-08-21T11:55:16;15.40;;;12.57;;
8572;SDS011;4324;42.012;24.872;2022-08-21T11:57:46;17.27;;;13.83;;
8572;SDS011;4324;42.012;24.872;2022-08-21T12:00:20;15.27;;;13.70;;
8572;SDS011;4324;42.012;24.872;2022-08-21T12:02:50;15.80;;;13.83;;
8572;SDS011;4324;42.012;24.872;2022-08-21T12:05:23;16.00;;;14.47;;
8572;SDS011;4324;42.012;24.872;2022-08-21T12:08:04;14.47;;;12.97;;
8572;SDS011;4324;42.012;24.872;2022-08-21T12:10:35;17.60;;;15.57;;
8572;SDS011;4324;42.012;24.872;2022-08-21T12:15:50;15.17;;;13.57;;
8572;SDS011;4324;42.012;24.872;2022-08-21T12:18:21;16.40;;;14.70;;
8572;SDS011;4324;42.012;24.872;2022-08-21T12:20:58;17.63;;;15.80;;
8572;SDS011;4324;42.012;24.872;2022-08-21T12:23:30;15.63;;;14.03;;
8572;SDS011;4324;42.012;24.872;2022-08-21T12:26:00;16.97;;;13.97;;
8572;SDS011;4324;42.012;24.872;2022-08-21T12:28:40;14.97;;;13.57;;
8572;SDS011;4324;42.012;24.872;2022-08-21T12:31:16;15.67;;;13.73;;
8572;SDS011;4324;42.012;24.872;2022-08-21T12:33:54;16.13;;;14.60;;
8572;SDS011;4324;42.012;24.872;2022-08-21T12:36:26;17.20;;;15.60;;
8572;SDS011;4324;42.012;24.872;2022-08-21T12:39:10;15.47;;;13.93;;
8572;SDS011;4324;42.012;24.872;2022-08-21T12:41:41;15.43;;;13.70;;
8572;SDS011;4324;42.012;24.872;2022-08-21T12:44:14;15.40;;;13.80;;
8572;SDS011;4324;42.012;24.872;2022-08-21T12:46:44;14.13;;;12.93;;
8572;SDS011;4324;42.012;24.872;2022-08-21T12:49:15;15.00;;;13.50;;
8572;SDS011;4324;42.012;24.872;2022-08-21T12:51:50;15.50;;;13.87;;
8572;SDS011;4324;42.012;24.872;2022-08-21T12:54:24;17.37;;;15.63;;
8572;SDS011;4324;42.012;24.872;2022-08-21T12:56:57;16.43;;;14.63;;
8572;SDS011;4324;42.012;24.872;2022-08-21T12:59:26;16.40;;;14.63;;
8572;SDS011;4324;42.012;24.872;2022-08-21T13:01:53;17.30;;;15.60;;
8572;SDS011;4324;42.012;24.872;2022-08-21T13:04:32;15.93;;;14.43;;
8572;SDS011;4324;42.012;24.872;2022-08-21T13:07:05;17.40;;;15.43;;
8572;SDS011;4324;42.012;24.872;2022-08-21T13:09:39;16.77;;;15.07;;
8572;SDS011;4324;42.012;24.872;2022-08-21T13:12:15;18.57;;;16.43;;
8572;SDS011;4324;42.012;24.872;2022-08-21T13:14:44;17.90;;;15.97;;
8572;SDS011;4324;42.012;24.872;2022-08-21T13:17:13;18.27;;;16.70;;
8572;SDS011;4324;42.012;24.872;2022-08-21T13:19:51;19.57;;;15.87;;
8572;SDS011;4324;42.012;24.872;2022-08-21T13:22:19;18.57;;;16.53;;
8572;SDS011;4324;42.012;24.872;2022-08-21T13:24:48;17.70;;;15.73;;
8572;SDS011;4324;42.012;24.872;2022-08-21T13:27:19;18.23;;;16.40;;
8572;SDS011;4324;42.012;24.872;2022-08-21T13:29:48;18.33;;;16.40;;
8572;SDS011;4324;42.012;24.872;2022-08-21T13:32:26;17.00;;;15.17;;
8572;SDS011;4324;42.012;24.872;2022-08-21T13:34:56;19.60;;;17.67;;
8572;SDS011;4324;42.012;24.872;2022-08-21T13:37:23;19.83;;;17.73;;
8572;SDS011;4324;42.012;24.872;2022-08-21T13:39:54;24.60;;;19.30;;
8572;SDS011;4324;42.012;24.872;2022-08-21T13:42:22;16.70;;;15.07;;
8572;SDS011;4324;42.012;24.872;2022-08-21T13:44:50;16.73;;;15.27;;
8572;SDS011;4324;42.012;24.872;2022-08-21T13:47:20;18.60;;;16.73;;
8572;SDS011;4324;42.012;24.872;2022-08-21T13:49:47;19.27;;;17.47;;
8572;SDS011;4324;42.012;24.872;2022-08-21T13:52:17;18.17;;;16.30;;
8572;SDS011;4324;42.012;24.872;2022-08-21T13:54:52;19.97;;;17.77;;
8572;SDS011;4324;42.012;24.872;2022-08-21T13:57:26;17.77;;;16.13;;
8572;SDS011;4324;42.012;24.872;2022-08-21T14:00:09;20.33;;;18.43;;
8572;SDS011;4324;42.012;24.872;2022-08-21T14:02:38;27.03;;;24.17;;
8572;SDS011;4324;42.012;24.872;2022-08-21T14:05:07;19.70;;;17.57;;
8572;SDS011;4324;42.012;24.872;2022-08-21T14:07:42;18.10;;;16.30;;
8572;SDS011;4324;42.012;24.872;2022-08-21T14:10:12;18.83;;;17.00;;
8572;SDS011;4324;42.012;24.872;2022-08-21T14:12:45;18.57;;;16.77;;
8572;SDS011;4324;42.012;24.872;2022-08-21T14:15:15;19.47;;;17.57;;
8572;SDS011;4324;42.012;24.872;2022-08-21T14:17:44;19.10;;;17.13;;
8572;SDS011;4324;42.012;24.872;2022-08-21T14:20:12;18.23;;;16.70;;
8572;SDS011;4324;42.012;24.872;2022-08-21T14:22:53;18.43;;;16.47;;
8572;SDS011;4324;42.012;24.872;2022-08-21T14:25:27;18.97;;;16.97;;
8572;SDS011;4324;42.012;24.872;2022-08-21T14:27:58;18.37;;;16.47;;
8572;SDS011;4324;42.012;24.872;2022-08-21T14:30:33;17.67;;;16.07;;
8572;SDS011;4324;42.012;24.872;2022-08-21T14:33:03;16.87;;;15.23;;
8572;SDS011;4324;42.012;24.872;2022-08-21T14:35:34;16.73;;;15.13;;
8572;SDS011;4324;42.012;24.872;2022-08-21T14:38:02;15.27;;;13.77;;
8572;SDS011;4324;42.012;24.872;2022-08-21T14:40:37;14.27;;;12.77;;
8572;SDS011;4324;42.012;24.872;2022-08-21T14:43:06;13.23;;;12.03;;
8572;SDS011;4324;42.012;24.872;2022-08-21T14:45:33;14.30;;;12.70;;
8572;SDS011;4324;42.012;24.872;2022-08-21T14:48:02;13.07;;;11.73;;
8572;SDS011;4324;42.012;24.872;2022-08-21T14:50:29;12.53;;;11.03;;
8572;SDS011;4324;42.012;24.872;2022-08-21T14:52:56;12.73;;;11.23;;
8572;SDS011;4324;42.012;24.872;2022-08-21T14:55:23;12.27;;;11.07;;
8572;SDS011;4324;42.012;24.872;2022-08-21T14:57:51;13.33;;;11.87;;
8572;SDS011;4324;42.012;24.872;2022-08-21T15:00:22;13.23;;;11.27;;
8572;SDS011;4324;42.012;24.872;2022-08-21T15:02:51;11.83;;;10.80;;